createdAt,value
2023-07-24T00:01:26.903Z,90.03
2023-07-24T00:03:30.183Z,90.64
2023-07-24T00:05:33.238Z,91.56
2023-07-24T00:07:36.297Z,91.55
2023-07-24T00:09:39.391Z,92.62
2023-07-24T00:11:42.428Z,93.11
2023-07-24T00:13:45.459Z,92.94
2023-07-24T00:15:49.978Z,93.88
2023-07-24T00:17:53.142Z,94.17
2023-07-24T00:19:55.282Z,94.76
2023-07-24T00:21:58.393Z,95.43
2023-07-24T00:24:01.524Z,95.28
2023-07-24T00:26:04.566Z,96.53
2023-07-24T00:28:07.716Z,95.60
2023-07-24T00:30:12.461Z,96.06
2023-07-24T00:32:16.957Z,95.94
2023-07-24T00:34:20.057Z,97.19
2023-07-24T00:36:23.198Z,96.92
2023-07-24T00:38:26.413Z,97.10
2023-07-24T00:40:29.453Z,96.86
2023-07-24T00:42:32.449Z,98.00
2023-07-24T00:44:35.541Z,96.65
2023-07-24T00:46:39.289Z,97.29
2023-07-24T00:48:43.886Z,97.10
2023-07-24T00:50:46.813Z,97.28
2023-07-24T00:52:49.966Z,98.28
2023-07-24T00:54:53.986Z,96.97
2023-07-24T00:56:57.134Z,98.22
2023-07-24T00:59:00.270Z,97.28
2023-07-24T01:01:03.522Z,98.99
2023-07-24T01:03:06.788Z,98.18
2023-07-24T01:05:13.542Z,99.33
2023-07-24T01:07:17.707Z,99.56
2023-07-24T01:09:20.838Z,99.40
2023-07-24T01:11:28.701Z,99.84
2023-07-24T01:13:35.256Z,99.23
2023-07-24T01:15:41.616Z,99.20
2023-07-24T01:17:49.480Z,98.88
2023-07-24T01:19:57.127Z,98.25
2023-07-24T01:22:06.479Z,99.10
2023-07-24T01:24:17.335Z,100.00
2023-07-24T01:26:24.998Z,99.10
2023-07-24T01:28:28.526Z,99.40
2023-07-24T01:30:31.669Z,99.88
2023-07-24T01:32:34.757Z,99.06
2023-07-24T01:34:37.867Z,98.99
2023-07-24T01:36:41.338Z,99.05
2023-07-24T01:38:44.518Z,99.09
2023-07-24T01:40:48.026Z,99.54
2023-07-24T01:42:53.170Z,99.81
2023-07-24T01:44:56.285Z,98.51
2023-07-24T01:46:59.343Z,99.17
2023-07-24T01:49:02.445Z,99.08
2023-07-24T01:51:05.607Z,97.49
2023-07-24T01:53:07.736Z,98.20
2023-07-24T01:55:11.218Z,98.10
2023-07-24T01:57:14.278Z,98.64
2023-07-24T01:59:18.758Z,98.73
2023-07-24T02:01:21.910Z,98.25
2023-07-24T02:03:25.175Z,98.39
2023-07-24T02:05:28.817Z,99.41
2023-07-24T02:07:32.522Z,98.77
2023-07-24T02:09:35.622Z,99.74
2023-07-24T02:11:38.682Z,100.00
2023-07-24T02:13:41.797Z,100.00
2023-07-24T02:15:46.298Z,100.00
2023-07-24T02:17:49.430Z,99.97
2023-07-24T02:19:55.572Z,99.22
2023-07-24T02:21:58.703Z,98.90
2023-07-24T02:24:01.102Z,98.82
2023-07-24T02:26:04.176Z,99.60
2023-07-24T02:28:06.342Z,99.56
2023-07-24T02:30:10.374Z,99.95
2023-07-24T02:32:14.899Z,100.00
2023-07-24T02:34:19.187Z,99.94
2023-07-24T02:36:22.311Z,100.00
2023-07-24T02:38:25.653Z,100.00
2023-07-24T02:40:28.693Z,100.00
2023-07-24T02:42:31.723Z,100.00
2023-07-24T02:44:36.111Z,100.00
2023-07-24T02:46:39.226Z,100.00
2023-07-24T02:48:43.852Z,100.00
2023-07-24T02:50:46.984Z,100.00
2023-07-24T02:52:50.056Z,100.00
2023-07-24T02:54:53.200Z,100.00
2023-07-24T02:56:56.284Z,100.00
2023-07-24T02:58:59.447Z,100.00
2023-07-24T03:01:07.521Z,99.66
2023-07-24T03:03:10.742Z,100.00
2023-07-24T03:05:14.312Z,99.80
2023-07-24T03:07:17.395Z,99.96
2023-07-24T03:09:20.464Z,100.00
2023-07-24T03:11:23.502Z,99.76
2023-07-24T03:13:25.528Z,100.00
2023-07-24T03:15:28.726Z,100.00
2023-07-24T03:17:32.051Z,100.00
2023-07-24T03:19:35.138Z,100.00
2023-07-24T03:21:39.915Z,100.00
2023-07-24T03:23:42.980Z,100.00
2023-07-24T03:25:46.146Z,100.00
2023-07-24T03:27:49.377Z,100.00
2023-07-24T03:29:52.430Z,100.00
2023-07-24T03:31:55.757Z,100.00
2023-07-24T03:33:58.849Z,100.00
2023-07-24T03:36:02.032Z,100.00
2023-07-24T03:38:06.760Z,100.00
2023-07-24T03:40:10.571Z,100.00
2023-07-24T03:42:14.240Z,100.00
2023-07-24T03:44:17.319Z,100.00
2023-07-24T03:46:20.429Z,100.00
2023-07-24T03:48:22.609Z,100.00
2023-07-24T03:50:25.873Z,100.00
2023-07-24T03:52:28.971Z,100.00
2023-07-24T03:54:33.379Z,100.00
2023-07-24T03:56:36.404Z,100.00
2023-07-24T03:58:40.504Z,100.00
2023-07-24T04:00:43.639Z,100.00
2023-07-24T04:02:46.887Z,100.00
2023-07-24T04:04:50.064Z,100.00
2023-07-24T04:06:53.148Z,100.00
2023-07-24T04:08:56.217Z,100.00
2023-07-24T04:11:00.707Z,100.00
2023-07-24T04:13:03.768Z,100.00
2023-07-24T04:15:08.013Z,100.00
2023-07-24T04:17:11.812Z,100.00
2023-07-24T04:19:15.173Z,100.00
2023-07-24T04:21:18.270Z,100.00
2023-07-24T04:23:21.356Z,100.00
2023-07-24T04:25:24.828Z,100.00
2023-07-24T04:27:29.506Z,100.00
2023-07-24T04:29:32.576Z,100.00
2023-07-24T04:31:35.726Z,100.00
2023-07-24T04:33:38.795Z,100.00
2023-07-24T04:35:41.828Z,100.00
2023-07-24T04:37:44.988Z,100.00
2023-07-24T04:39:47.231Z,100.00
2023-07-24T04:41:50.258Z,100.00
2023-07-24T04:43:54.663Z,100.00
2023-07-24T04:45:57.753Z,100.00
2023-07-24T04:47:59.923Z,100.00
2023-07-24T04:50:03.067Z,100.00
2023-07-24T04:52:06.859Z,100.00
2023-07-24T04:54:10.182Z,100.00
2023-07-24T04:56:13.263Z,100.00
2023-07-24T04:58:16.528Z,100.00
2023-07-24T05:00:21.204Z,100.00
2023-07-24T05:02:24.366Z,100.00
2023-07-24T05:04:27.521Z,100.00
2023-07-24T05:06:30.856Z,100.00
2023-07-24T05:08:34.101Z,100.00
2023-07-24T05:10:37.478Z,100.00
2023-07-24T05:12:43.662Z,100.00
2023-07-24T05:14:46.751Z,100.00
2023-07-24T05:16:51.287Z,99.20
2023-07-24T05:18:54.488Z,100.00
2023-07-24T05:20:57.641Z,100.00
2023-07-24T05:23:00.727Z,99.82
2023-07-24T05:25:03.858Z,99.89
2023-07-24T05:27:07.220Z,100.00
2023-07-24T05:29:10.335Z,100.00
2023-07-24T05:31:13.500Z,100.00
2023-07-24T05:33:16.902Z,100.00
2023-07-24T05:35:20.015Z,100.00
2023-07-24T05:37:23.020Z,100.00
2023-07-24T05:39:26.146Z,100.00
2023-07-24T05:41:29.250Z,100.00
2023-07-24T05:43:33.438Z,99.78
2023-07-24T05:45:35.544Z,100.00
2023-07-24T05:47:38.615Z,100.00
2023-07-24T05:49:43.062Z,100.00
2023-07-24T05:51:46.092Z,100.00
2023-07-24T05:53:49.150Z,100.00
2023-07-24T05:56:00.148Z,100.00
2023-07-24T05:58:03.272Z,100.00
2023-07-24T06:00:07.689Z,100.00
2023-07-24T06:02:19.111Z,100.00
2023-07-24T06:04:22.267Z,100.00
2023-07-24T06:06:26.868Z,100.00
2023-07-24T06:08:30.055Z,100.00
2023-07-24T06:10:33.139Z,100.00
2023-07-24T06:12:36.310Z,100.00
2023-07-24T06:14:39.338Z,100.00
2023-07-24T06:16:42.507Z,100.00
2023-07-24T06:18:45.671Z,100.00
2023-07-24T06:20:51.208Z,100.00
2023-07-24T06:22:55.764Z,100.00
2023-07-24T06:24:58.899Z,100.00
2023-07-24T06:27:02.088Z,100.00
2023-07-24T06:29:05.168Z,100.00
2023-07-24T06:31:08.333Z,100.00
2023-07-24T06:33:11.445Z,100.00
2023-07-24T06:35:14.560Z,100.00
2023-07-24T06:37:22.675Z,100.00
2023-07-24T06:39:29.719Z,100.00
2023-07-24T06:41:32.942Z,100.00
2023-07-24T06:43:36.079Z,100.00
2023-07-24T06:45:38.844Z,100.00
2023-07-24T06:47:42.038Z,100.00
2023-07-24T06:49:45.168Z,100.00
2023-07-24T06:51:48.253Z,100.00
2023-07-24T06:53:51.357Z,100.00
2023-07-24T06:55:55.797Z,100.00
2023-07-24T06:57:58.964Z,100.00
2023-07-24T07:00:02.057Z,100.00
2023-07-24T07:02:06.048Z,100.00
2023-07-24T07:04:09.136Z,100.00
2023-07-24T07:06:28.219Z,100.00
2023-07-24T07:08:36.142Z,100.00
2023-07-24T07:10:39.254Z,100.00
2023-07-24T07:12:43.983Z,100.00
2023-07-24T07:14:47.103Z,100.00
2023-07-24T07:16:50.197Z,100.00
2023-07-24T07:18:53.281Z,100.00
2023-07-24T07:20:55.358Z,100.00
2023-07-24T07:22:58.430Z,100.00
2023-07-24T07:25:01.521Z,100.00
2023-07-24T07:27:03.900Z,100.00
2023-07-24T07:29:08.324Z,100.00
2023-07-24T07:31:11.459Z,100.00
2023-07-24T07:33:14.553Z,100.00
2023-07-24T07:35:18.033Z,100.00
2023-07-24T07:37:21.137Z,100.00
2023-07-24T07:39:24.344Z,100.00
2023-07-24T07:41:27.478Z,100.00
2023-07-24T07:43:30.596Z,100.00
2023-07-24T07:45:35.424Z,100.00
2023-07-24T07:47:38.600Z,100.00
2023-07-24T07:49:41.393Z,100.00
2023-07-24T07:51:44.492Z,100.00
2023-07-24T07:53:47.570Z,100.00
2023-07-24T07:55:57.986Z,100.00
2023-07-24T07:58:01.078Z,100.00
2023-07-24T08:00:04.586Z,100.00
2023-07-24T08:02:10.771Z,100.00
2023-07-24T08:04:13.873Z,100.00
2023-07-24T08:06:16.955Z,100.00
2023-07-24T08:08:20.043Z,100.00
2023-07-24T08:10:23.218Z,100.00
2023-07-24T08:12:26.972Z,100.00
2023-07-24T08:14:30.402Z,100.00
2023-07-24T08:16:33.901Z,100.00
2023-07-24T08:18:38.832Z,100.00
2023-07-24T08:20:42.165Z,100.00
2023-07-24T08:22:45.263Z,100.00
2023-07-24T08:24:51.509Z,100.00
2023-07-24T08:26:54.789Z,100.00
2023-07-24T08:28:57.843Z,100.00
2023-07-24T08:31:05.602Z,100.00
2023-07-24T08:33:10.299Z,100.00
2023-07-24T08:35:14.791Z,100.00
2023-07-24T08:37:17.844Z,99.68
2023-07-24T08:39:20.972Z,100.00
2023-07-24T08:41:24.087Z,100.00
2023-07-24T08:43:27.296Z,100.00
2023-07-24T08:45:30.438Z,100.00
2023-07-24T08:47:33.855Z,100.00
2023-07-24T08:49:37.164Z,100.00
2023-07-24T08:51:41.928Z,100.00
2023-07-24T08:53:45.784Z,100.00
2023-07-24T08:55:51.019Z,100.00
2023-07-24T08:57:54.123Z,100.00
2023-07-24T08:59:57.346Z,100.00
2023-07-24T09:02:00.596Z,100.00
2023-07-24T09:04:03.909Z,100.00
2023-07-24T09:06:08.756Z,100.00
2023-07-24T09:08:13.277Z,100.00
2023-07-24T09:10:16.588Z,100.00
2023-07-24T09:12:19.641Z,99.76
2023-07-24T09:14:24.107Z,97.38
2023-07-24T09:16:28.403Z,97.17
2023-07-24T09:18:41.572Z,97.27
2023-07-24T09:20:45.491Z,96.95
2023-07-24T09:23:10.560Z,96.34
2023-07-24T09:25:15.413Z,97.12
2023-07-24T09:27:18.652Z,96.91
2023-07-24T09:29:21.844Z,96.86
2023-07-24T09:31:36.813Z,94.62
2023-07-24T09:33:41.254Z,92.57
2023-07-24T09:35:44.367Z,92.16
2023-07-24T09:37:48.131Z,91.63
2023-07-24T09:39:51.258Z,93.84
2023-07-24T09:41:56.000Z,92.17
2023-07-24T09:44:00.753Z,94.83
2023-07-24T09:46:06.452Z,93.63
2023-07-24T09:48:38.848Z,94.11
2023-07-24T09:50:35.358Z,93.29
2023-07-24T09:52:39.498Z,89.70
2023-07-24T09:54:47.337Z,92.25
2023-07-24T09:56:57.952Z,91.76
2023-07-24T09:59:11.845Z,92.43
2023-07-24T10:01:15.055Z,89.26
2023-07-24T10:03:18.195Z,88.07
2023-07-24T10:05:21.346Z,90.43
2023-07-24T10:07:24.846Z,89.33
2023-07-24T10:09:30.541Z,90.52
2023-07-24T10:11:34.296Z,90.03
2023-07-24T10:13:37.907Z,90.48
2023-07-24T10:15:42.828Z,92.17
2023-07-24T10:17:45.985Z,90.75
2023-07-24T10:19:49.134Z,92.32
2023-07-24T10:21:53.799Z,90.92
2023-07-24T10:23:56.950Z,92.87
2023-07-24T10:26:05.649Z,92.83
2023-07-24T10:28:11.997Z,92.31
2023-07-24T10:30:32.102Z,93.65
2023-07-24T10:32:50.949Z,94.21
2023-07-24T10:35:00.169Z,95.16
2023-07-24T10:37:04.966Z,94.47
2023-07-24T10:39:15.954Z,94.62
2023-07-24T10:41:19.053Z,95.37
2023-07-24T10:43:22.872Z,95.31
2023-07-24T10:45:26.205Z,96.32
2023-07-24T10:47:29.301Z,96.01
2023-07-24T10:49:33.735Z,95.73
2023-07-24T10:51:38.700Z,95.87
2023-07-24T10:53:46.169Z,96.09
2023-07-24T10:55:51.489Z,96.02
2023-07-24T10:57:55.511Z,96.51
2023-07-24T10:59:58.822Z,95.78
2023-07-24T11:02:04.162Z,95.95
2023-07-24T11:04:07.974Z,96.16
2023-07-24T11:06:17.001Z,96.02
2023-07-24T11:08:21.775Z,96.30
2023-07-24T11:10:25.584Z,96.96
2023-07-24T11:12:31.996Z,96.96
2023-07-24T11:14:35.045Z,95.83
2023-07-24T11:16:38.445Z,96.29
2023-07-24T11:18:54.637Z,97.15
2023-07-24T11:20:58.622Z,96.65
2023-07-24T11:25:07.521Z,97.98
2023-07-24T11:27:12.585Z,97.92
2023-07-24T11:29:15.875Z,97.59
2023-07-24T11:31:20.952Z,97.93
2023-07-24T11:33:24.753Z,98.39
2023-07-24T11:35:28.182Z,97.73
2023-07-24T11:37:31.526Z,98.17
2023-07-24T11:39:35.984Z,99.58
2023-07-24T11:41:39.309Z,99.18
2023-07-24T11:43:48.097Z,99.22
2023-07-24T11:45:53.244Z,98.71
2023-07-24T11:47:57.362Z,99.31
2023-07-24T11:50:01.616Z,98.26
2023-07-24T11:52:06.991Z,97.90
2023-07-24T11:54:12.675Z,99.61
2023-07-24T11:56:19.052Z,100.00
2023-07-24T11:58:22.809Z,99.60
2023-07-24T12:00:25.067Z,100.00
2023-07-24T12:02:29.218Z,99.78
2023-07-24T12:04:33.088Z,99.15
2023-07-24T12:06:36.213Z,100.00
2023-07-24T12:08:39.874Z,98.65
2023-07-24T12:10:43.385Z,97.48
2023-07-24T12:12:48.820Z,97.29
2023-07-24T12:14:53.143Z,96.90
2023-07-24T12:17:03.048Z,95.44
2023-07-24T12:19:07.079Z,96.09
2023-07-24T12:21:09.496Z,95.28
2023-07-24T12:23:12.643Z,94.35
2023-07-24T12:25:16.504Z,93.58
2023-07-24T12:27:19.666Z,93.47
2023-07-24T12:29:24.181Z,93.38
2023-07-24T12:31:27.702Z,93.21
2023-07-24T12:33:30.897Z,93.06
2023-07-24T12:35:34.009Z,94.36
2023-07-24T12:37:37.262Z,94.83
2023-07-24T12:39:40.378Z,95.76
2023-07-24T12:41:43.385Z,95.62
2023-07-24T12:43:46.823Z,93.64
2023-07-24T12:45:51.320Z,95.05
2023-07-24T12:47:56.447Z,96.18
2023-07-24T12:50:00.478Z,96.85
2023-07-24T12:52:04.317Z,97.52
2023-07-24T12:54:39.579Z,97.34
2023-07-24T12:56:30.530Z,97.92
2023-07-24T12:58:33.665Z,97.48
2023-07-24T13:00:36.875Z,97.92
2023-07-24T13:02:41.381Z,97.17
2023-07-24T13:04:44.989Z,98.72
2023-07-24T13:06:48.216Z,99.87
2023-07-24T13:08:51.410Z,99.32
2023-07-24T13:10:54.587Z,99.28
2023-07-24T13:12:57.934Z,97.97
2023-07-24T13:15:00.979Z,98.51
2023-07-24T13:17:04.257Z,98.32
2023-07-24T13:19:08.842Z,98.45
2023-07-24T13:21:11.872Z,98.12
2023-07-24T13:23:16.256Z,97.41
2023-07-24T13:25:20.553Z,97.69
2023-07-24T13:27:23.597Z,97.74
2023-07-24T13:29:26.933Z,96.94
2023-07-24T13:31:30.822Z,97.93
2023-07-24T13:33:34.042Z,97.45
2023-07-24T13:35:38.581Z,97.44
2023-07-24T13:37:41.666Z,97.45
2023-07-24T13:39:44.795Z,98.21
2023-07-24T13:41:47.883Z,98.03
2023-07-24T13:43:51.075Z,97.14
2023-07-24T13:45:54.356Z,98.12
2023-07-24T13:47:59.269Z,96.88
2023-07-24T13:50:04.572Z,97.09
2023-07-24T13:52:09.399Z,97.95
2023-07-24T13:54:12.697Z,97.99
2023-07-24T13:56:16.184Z,98.67
2023-07-24T13:58:19.466Z,98.07
2023-07-24T14:00:22.635Z,97.39
2023-07-24T14:02:28.484Z,97.08
2023-07-24T14:04:34.598Z,96.90
2023-07-24T14:06:37.738Z,96.67
2023-07-24T14:08:42.241Z,95.61
2023-07-24T14:10:45.355Z,95.68
2023-07-24T14:12:48.664Z,95.84
2023-07-24T14:14:51.782Z,95.12
2023-07-24T14:16:54.994Z,96.63
2023-07-24T14:18:58.166Z,93.63
2023-07-24T14:21:01.285Z,93.10
2023-07-24T14:23:04.397Z,93.29
2023-07-24T14:25:10.025Z,93.88
2023-07-24T14:27:13.153Z,93.25
2023-07-24T14:29:18.322Z,93.54
2023-07-24T14:31:21.808Z,92.92
2023-07-24T14:33:24.902Z,94.36
2023-07-24T14:35:28.150Z,92.64
2023-07-24T14:37:32.067Z,93.15
2023-07-24T14:39:35.411Z,95.25
2023-07-24T14:41:40.104Z,94.73
2023-07-24T14:43:43.227Z,94.80
2023-07-24T14:45:46.392Z,92.16
2023-07-24T14:47:49.919Z,89.22
2023-07-24T14:49:53.110Z,89.91
2023-07-24T14:51:56.258Z,90.11
2023-07-24T14:53:59.461Z,89.20
2023-07-24T14:56:02.573Z,88.65
2023-07-24T14:58:07.094Z,88.42
2023-07-24T15:00:11.036Z,88.17
2023-07-24T15:02:14.213Z,86.08
2023-07-24T15:04:17.351Z,84.95
2023-07-24T15:06:20.432Z,85.32
2023-07-24T15:08:23.535Z,85.72
2023-07-24T15:10:26.729Z,86.44
2023-07-24T15:12:29.936Z,85.33
2023-07-24T15:14:34.391Z,85.99
2023-07-24T15:16:37.516Z,84.55
2023-07-24T15:18:40.653Z,84.94
2023-07-24T15:20:43.769Z,82.67
2023-07-24T15:22:46.890Z,85.79
2023-07-24T15:24:49.969Z,84.54
2023-07-24T15:26:53.181Z,85.95
2023-07-24T15:28:56.302Z,84.65
2023-07-24T15:31:00.853Z,84.04
2023-07-24T15:33:04.051Z,83.73
2023-07-24T15:35:08.047Z,83.64
2023-07-24T15:37:11.611Z,83.90
2023-07-24T15:39:13.772Z,84.00
2023-07-24T15:41:16.868Z,82.48
2023-07-24T15:43:19.971Z,84.23
2023-07-24T15:45:23.135Z,83.96
2023-07-24T15:47:27.977Z,81.53
2023-07-24T15:49:31.119Z,80.84
2023-07-24T15:51:34.588Z,83.64
2023-07-24T15:53:37.914Z,84.10
2023-07-24T15:55:41.042Z,82.66
2023-07-24T15:57:44.178Z,83.84
2023-07-24T15:59:47.256Z,83.42
2023-07-24T16:01:51.773Z,82.85
2023-07-24T16:03:56.253Z,83.67
2023-07-24T16:05:58.384Z,83.96
2023-07-24T16:08:01.877Z,83.81
2023-07-24T16:10:05.843Z,83.88
2023-07-24T16:12:09.155Z,84.13
2023-07-24T16:14:11.215Z,84.23
2023-07-24T16:16:15.594Z,84.50
2023-07-24T16:18:18.174Z,83.76
2023-07-24T16:20:23.237Z,83.84
2023-07-24T16:22:26.360Z,82.89
2023-07-24T16:24:29.462Z,83.35
2023-07-24T16:26:31.930Z,83.44
2023-07-24T16:28:35.334Z,83.81
2023-07-24T16:30:38.537Z,84.87
2023-07-24T16:32:49.210Z,84.10
2023-07-24T16:34:53.628Z,84.46
2023-07-24T16:36:58.016Z,84.52
2023-07-24T16:39:01.160Z,84.98
2023-07-24T16:41:04.740Z,86.10
2023-07-24T16:43:07.896Z,86.25
2023-07-24T16:45:11.202Z,88.11
2023-07-24T16:47:31.847Z,88.44
2023-07-24T16:49:34.983Z,88.84
2023-07-24T16:51:38.092Z,90.05
2023-07-24T16:53:42.529Z,90.74
2023-07-24T16:55:45.771Z,91.80
2023-07-24T16:57:49.013Z,94.62
2023-07-24T16:59:53.127Z,94.75
2023-07-24T17:01:56.919Z,95.01
2023-07-24T17:04:00.070Z,96.97
2023-07-24T17:06:03.277Z,97.38
2023-07-24T17:08:06.637Z,97.96
2023-07-24T17:10:12.798Z,98.93
2023-07-24T17:12:15.978Z,99.44
2023-07-24T17:14:19.083Z,100.00
2023-07-24T17:16:22.395Z,100.00
2023-07-24T17:18:26.073Z,100.00
2023-07-24T17:20:29.234Z,100.00
2023-07-24T17:22:32.463Z,100.00
2023-07-24T17:24:34.630Z,100.00
2023-07-24T17:26:39.738Z,100.00
2023-07-24T17:28:44.063Z,100.00
2023-07-24T17:30:47.218Z,99.36
2023-07-24T17:32:50.411Z,98.63
2023-07-24T17:34:53.594Z,98.97
2023-07-24T17:36:57.234Z,99.16
2023-07-24T17:39:02.069Z,99.04
2023-07-24T17:41:05.318Z,99.25
2023-07-24T17:43:09.854Z,98.56
2023-07-24T17:45:15.851Z,98.77
2023-07-24T17:47:18.954Z,99.49
2023-07-24T17:49:22.158Z,99.28
2023-07-24T17:51:25.391Z,98.64
2023-07-24T17:53:28.550Z,97.41
2023-07-24T17:55:31.626Z,97.44
2023-07-24T17:57:35.031Z,98.10
2023-07-24T17:59:39.726Z,98.03
2023-07-24T18:01:42.894Z,97.81
2023-07-24T18:03:46.035Z,98.25
2023-07-24T18:05:49.238Z,97.10
2023-07-24T18:07:53.400Z,96.91
2023-07-24T18:09:56.774Z,97.03
2023-07-24T18:12:00.486Z,97.19
2023-07-24T18:14:03.615Z,96.24
2023-07-24T18:16:08.790Z,96.28
2023-07-24T18:18:12.149Z,96.47
2023-07-24T18:20:15.581Z,96.34
2023-07-24T18:22:20.390Z,95.82
2023-07-24T18:24:24.637Z,95.32
2023-07-24T18:26:28.060Z,94.96
2023-07-24T18:28:31.186Z,95.24
2023-07-24T18:30:34.341Z,94.72
2023-07-24T18:32:39.042Z,94.80
2023-07-24T18:34:42.314Z,94.97
2023-07-24T18:36:45.399Z,94.87
2023-07-24T18:38:48.644Z,94.99
2023-07-24T18:40:51.969Z,94.03
2023-07-24T18:42:55.128Z,95.52
2023-07-24T18:44:58.309Z,95.72
2023-07-24T18:47:01.501Z,95.23
2023-07-24T18:49:09.227Z,95.77
2023-07-24T18:51:12.438Z,94.88
2023-07-24T18:53:15.615Z,96.19
2023-07-24T18:55:17.943Z,95.51
2023-07-24T18:57:21.861Z,95.56
2023-07-24T18:59:25.111Z,95.65
2023-07-24T19:01:28.728Z,95.85
2023-07-24T19:03:32.314Z,96.61
2023-07-24T19:05:37.409Z,96.38
2023-07-24T19:07:40.701Z,95.69
2023-07-24T19:09:43.865Z,96.39
2023-07-24T19:11:47.040Z,96.19
2023-07-24T19:13:50.213Z,95.92
2023-07-24T19:15:53.361Z,95.37
2023-07-24T19:17:56.545Z,96.13
2023-07-24T19:19:59.698Z,95.93
2023-07-24T19:22:04.674Z,95.55
2023-07-24T19:24:08.734Z,96.48
2023-07-24T19:26:14.283Z,96.20
2023-07-24T19:28:17.464Z,94.51
2023-07-24T19:30:19.671Z,94.45
2023-07-24T19:32:25.481Z,95.81
2023-07-24T19:34:28.944Z,95.01
2023-07-24T19:36:32.047Z,95.55
2023-07-24T19:38:36.777Z,95.03
2023-07-24T19:40:40.031Z,96.39
2023-07-24T19:42:43.208Z,95.53
2023-07-24T19:44:46.352Z,95.88
2023-07-24T19:46:48.629Z,96.59
2023-07-24T19:48:51.775Z,95.29
2023-07-24T19:50:56.422Z,94.54
2023-07-24T19:52:59.641Z,95.72
2023-07-24T19:55:04.095Z,95.13
2023-07-24T19:57:08.172Z,94.24
2023-07-24T19:59:11.524Z,95.56
2023-07-24T20:01:13.877Z,94.38
2023-07-24T20:03:17.464Z,94.83
2023-07-24T20:05:21.445Z,94.93
2023-07-24T20:07:24.824Z,95.42
2023-07-24T20:09:28.689Z,96.29
2023-07-24T20:11:33.347Z,96.62
2023-07-24T20:13:38.955Z,95.55
2023-07-24T20:15:43.138Z,96.81
2023-07-24T20:17:46.375Z,96.40
2023-07-24T20:19:49.594Z,96.83
2023-07-24T20:21:52.881Z,96.67
2023-07-24T20:23:56.772Z,94.68
2023-07-24T20:26:00.029Z,96.08
2023-07-24T20:28:04.640Z,96.28
2023-07-24T20:30:09.345Z,95.55
2023-07-24T20:32:11.718Z,95.56
2023-07-24T20:34:14.962Z,97.41
2023-07-24T20:36:18.135Z,96.00
2023-07-24T20:38:25.437Z,97.52
2023-07-24T20:40:28.699Z,96.77
2023-07-24T20:42:32.344Z,97.12
2023-07-24T20:44:36.881Z,96.57
2023-07-24T20:46:40.033Z,96.46
2023-07-24T20:48:43.374Z,96.41
2023-07-24T20:50:47.040Z,96.03
2023-07-24T20:52:50.322Z,96.25
2023-07-24T20:54:53.516Z,97.58
2023-07-24T20:56:56.611Z,97.54
2023-07-24T20:58:59.749Z,97.40
2023-07-24T21:01:03.316Z,96.23
2023-07-24T21:03:06.531Z,97.70
2023-07-24T21:05:10.546Z,96.87
2023-07-24T21:07:13.743Z,97.32
2023-07-24T21:09:18.103Z,96.21
2023-07-24T21:11:21.300Z,96.30
2023-07-24T21:13:24.590Z,96.92
2023-07-24T21:15:27.692Z,98.06
2023-07-24T21:17:32.169Z,98.67
2023-07-24T21:19:35.314Z,98.28
2023-07-24T21:21:38.388Z,98.65
2023-07-24T21:23:41.559Z,98.76
2023-07-24T21:25:54.020Z,97.71
2023-07-24T21:27:57.118Z,98.30
2023-07-24T21:30:00.303Z,97.61
2023-07-24T21:32:03.400Z,97.59
2023-07-24T21:34:06.932Z,98.82
2023-07-24T21:36:10.112Z,97.72
2023-07-24T21:38:14.240Z,97.71
2023-07-24T21:40:18.250Z,98.91
2023-07-24T21:42:21.402Z,98.90
2023-07-24T21:44:24.627Z,98.52
2023-07-24T21:46:27.697Z,98.68
2023-07-24T21:48:31.027Z,99.55
2023-07-24T21:50:35.558Z,98.08
2023-07-24T21:52:38.727Z,97.49
2023-07-24T21:54:41.918Z,97.62
2023-07-24T21:56:45.049Z,98.59
2023-07-24T21:58:49.259Z,97.84
2023-07-24T22:00:52.498Z,98.34
2023-07-24T22:02:55.860Z,98.35
2023-07-24T22:04:59.178Z,98.58
2023-07-24T22:07:03.751Z,99.46
2023-07-24T22:09:06.983Z,99.90
2023-07-24T22:11:13.839Z,99.75
2023-07-24T22:13:16.916Z,99.05
2023-07-24T22:15:20.095Z,99.28
2023-07-24T22:17:29.186Z,99.04
2023-07-24T22:19:32.449Z,99.64
2023-07-24T22:21:35.555Z,99.17
2023-07-24T22:23:40.073Z,97.98
2023-07-24T22:25:44.357Z,98.01
2023-07-24T22:27:47.524Z,98.25
2023-07-24T22:29:50.595Z,97.84
2023-07-24T22:31:53.741Z,98.86
2023-07-24T22:33:56.930Z,99.22
2023-07-24T22:36:00.256Z,99.21
2023-07-24T22:38:03.507Z,99.48
2023-07-24T22:40:09.655Z,99.67
2023-07-24T22:42:12.948Z,99.57
2023-07-24T22:44:16.071Z,98.84
2023-07-24T22:46:19.344Z,100.00
2023-07-24T22:48:22.610Z,100.00
2023-07-24T22:50:24.715Z,100.00
2023-07-24T22:52:27.894Z,100.00
2023-07-24T22:54:31.017Z,99.32
2023-07-24T22:56:35.515Z,99.38
2023-07-24T22:59:10.806Z,99.83
2023-07-24T23:01:13.931Z,100.00
2023-07-24T23:03:17.080Z,100.00
2023-07-24T23:05:20.265Z,100.00
2023-07-24T23:07:23.394Z,100.00
2023-07-24T23:09:26.504Z,100.00
2023-07-24T23:11:28.763Z,100.00
2023-07-24T23:13:33.460Z,100.00
2023-07-24T23:15:36.491Z,100.00
2023-07-24T23:17:39.746Z,100.00
2023-07-24T23:19:42.886Z,100.00
2023-07-24T23:21:45.897Z,100.00
2023-07-24T23:23:47.983Z,99.82
2023-07-24T23:25:51.045Z,99.90
2023-07-24T23:27:54.155Z,100.00
2023-07-24T23:29:58.608Z,100.00
2023-07-24T23:32:01.769Z,100.00
2023-07-24T23:34:03.883Z,100.00
2023-07-24T23:36:08.332Z,100.00
2023-07-24T23:38:11.592Z,100.00
2023-07-24T23:40:14.836Z,100.00
2023-07-24T23:42:16.908Z,100.00
2023-07-24T23:44:19.983Z,100.00
2023-07-24T23:46:23.473Z,100.00
2023-07-24T23:48:26.788Z,100.00
2023-07-24T23:50:29.889Z,100.00
2023-07-24T23:52:32.940Z,100.00
2023-07-24T23:54:36.013Z,100.00
2023-07-24T23:56:39.392Z,100.00
2023-07-24T23:58:42.721Z,100.00
